sensor_id;sensor_type;location;lat;lon;timestamp;P1;durP1;ratioP1;P2;durP2;ratioP2
71955;SDS011;59829;50.562;6.258;2022-08-21T00:04:50;0.45;;;0.30;;
71955;SDS011;59829;50.562;6.258;2022-08-21T00:14:51;0.25;;;0.25;;
71955;SDS011;59829;50.562;6.258;2022-08-21T00:24:51;0.60;;;0.40;;
71955;SDS011;59829;50.562;6.258;2022-08-21T00:34:52;0.68;;;0.40;;
71955;SDS011;59829;50.562;6.258;2022-08-21T00:44:52;0.22;;;0.22;;
71955;SDS011;59829;50.562;6.258;2022-08-21T00:54:53;0.32;;;0.30;;
71955;SDS011;59829;50.562;6.258;2022-08-21T01:04:55;0.40;;;0.30;;
71955;SDS011;59829;50.562;6.258;2022-08-21T01:14:55;0.75;;;0.45;;
71955;SDS011;59829;50.562;6.258;2022-08-21T01:24:56;0.40;;;0.20;;
71955;SDS011;59829;50.562;6.258;2022-08-21T01:34:56;0.43;;;0.20;;
71955;SDS011;59829;50.562;6.258;2022-08-21T01:44:56;0.20;;;0.10;;
71955;SDS011;59829;50.562;6.258;2022-08-21T01:54:57;0.47;;;0.20;;
71955;SDS011;59829;50.562;6.258;2022-08-21T02:04:57;0.10;;;0.10;;
71955;SDS011;59829;50.562;6.258;2022-08-21T02:14:58;0.20;;;0.20;;
71955;SDS011;59829;50.562;6.258;2022-08-21T02:24:58;0.40;;;0.20;;
71955;SDS011;59829;50.562;6.258;2022-08-21T02:34:58;0.35;;;0.20;;
71955;SDS011;59829;50.562;6.258;2022-08-21T02:44:59;0.25;;;0.20;;
71955;SDS011;59829;50.562;6.258;2022-08-21T02:54:59;0.22;;;0.20;;
71955;SDS011;59829;50.562;6.258;2022-08-21T03:05:00;0.35;;;0.20;;
71955;SDS011;59829;50.562;6.258;2022-08-21T03:15:02;0.30;;;0.20;;
71955;SDS011;59829;50.562;6.258;2022-08-21T03:25:10;0.32;;;0.20;;
71955;SDS011;59829;50.562;6.258;2022-08-21T03:35:11;0.35;;;0.30;;
71955;SDS011;59829;50.562;6.258;2022-08-21T03:45:12;0.20;;;0.17;;
71955;SDS011;59829;50.562;6.258;2022-08-21T03:55:13;0.25;;;0.22;;
71955;SDS011;59829;50.562;6.258;2022-08-21T04:05:14;0.70;;;0.30;;
71955;SDS011;59829;50.562;6.258;2022-08-21T04:15:26;0.30;;;0.30;;
71955;SDS011;59829;50.562;6.258;2022-08-21T04:25:27;0.20;;;0.20;;
71955;SDS011;59829;50.562;6.258;2022-08-21T04:35:27;0.40;;;0.13;;
71955;SDS011;59829;50.562;6.258;2022-08-21T04:45:35;0.20;;;0.20;;
71955;SDS011;59829;50.562;6.258;2022-08-21T04:55:38;0.32;;;0.20;;
71955;SDS011;59829;50.562;6.258;2022-08-21T05:05:39;0.30;;;0.20;;
71955;SDS011;59829;50.562;6.258;2022-08-21T11:22:04;2.17;;;1.00;;
71955;SDS011;59829;50.562;6.258;2022-08-21T11:43:46;2.58;;;0.65;;
71955;SDS011;59829;50.562;6.258;2022-08-21T12:25:36;4.00;;;1.10;;
71955;SDS011;59829;50.562;6.258;2022-08-21T12:35:44;1.48;;;0.63;;
71955;SDS011;59829;50.562;6.258;2022-08-21T12:46:06;1.88;;;0.70;;
71955;SDS011;59829;50.562;6.258;2022-08-21T12:56:21;1.20;;;0.43;;
71955;SDS011;59829;50.562;6.258;2022-08-21T13:06:49;1.02;;;0.47;;
71955;SDS011;59829;50.562;6.258;2022-08-21T13:28:23;2.30;;;0.80;;
71955;SDS011;59829;50.562;6.258;2022-08-21T13:39:01;2.58;;;0.70;;
71955;SDS011;59829;50.562;6.258;2022-08-21T14:10:54;1.13;;;0.40;;
71955;SDS011;59829;50.562;6.258;2022-08-21T14:31:42;2.25;;;0.60;;
71955;SDS011;59829;50.562;6.258;2022-08-21T14:41:55;0.60;;;0.30;;
71955;SDS011;59829;50.562;6.258;2022-08-21T14:52:03;0.95;;;0.50;;
71955;SDS011;59829;50.562;6.258;2022-08-21T15:02:07;0.47;;;0.32;;
71955;SDS011;59829;50.562;6.258;2022-08-21T15:12:19;0.30;;;0.20;;
71955;SDS011;59829;50.562;6.258;2022-08-21T15:22:32;0.55;;;0.30;;
71955;SDS011;59829;50.562;6.258;2022-08-21T15:32:43;0.20;;;0.10;;
71955;SDS011;59829;50.562;6.258;2022-08-21T15:42:46;0.98;;;0.20;;
71955;SDS011;59829;50.562;6.258;2022-08-21T15:53:02;0.30;;;0.30;;
71955;SDS011;59829;50.562;6.258;2022-08-21T16:03:06;0.70;;;0.30;;
71955;SDS011;59829;50.562;6.258;2022-08-21T16:13:14;1.77;;;0.30;;
71955;SDS011;59829;50.562;6.258;2022-08-21T16:23:27;0.50;;;0.20;;
71955;SDS011;59829;50.562;6.258;2022-08-21T16:33:39;2.10;;;0.65;;
71955;SDS011;59829;50.562;6.258;2022-08-21T16:43:48;0.63;;;0.30;;
71955;SDS011;59829;50.562;6.258;2022-08-21T16:53:57;0.85;;;0.30;;
71955;SDS011;59829;50.562;6.258;2022-08-21T17:04:17;0.70;;;0.23;;
71955;SDS011;59829;50.562;6.258;2022-08-21T17:14:24;1.15;;;0.38;;
71955;SDS011;59829;50.562;6.258;2022-08-21T17:24:25;1.08;;;0.32;;
71955;SDS011;59829;50.562;6.258;2022-08-21T17:34:25;0.30;;;0.20;;
71955;SDS011;59829;50.562;6.258;2022-08-21T17:44:26;1.33;;;0.30;;
71955;SDS011;59829;50.562;6.258;2022-08-21T17:54:26;0.10;;;0.10;;
71955;SDS011;59829;50.562;6.258;2022-08-21T18:04:27;0.20;;;0.00;;
71955;SDS011;59829;50.562;6.258;2022-08-21T18:14:31;0.20;;;0.00;;
71955;SDS011;59829;50.562;6.258;2022-08-21T18:24:34;0.30;;;0.10;;
71955;SDS011;59829;50.562;6.258;2022-08-21T18:34:36;0.00;;;0.00;;
71955;SDS011;59829;50.562;6.258;2022-08-21T18:44:40;0.20;;;0.00;;
71955;SDS011;59829;50.562;6.258;2022-08-21T18:54:44;0.30;;;0.10;;
71955;SDS011;59829;50.562;6.258;2022-08-21T19:04:44;0.17;;;0.10;;
71955;SDS011;59829;50.562;6.258;2022-08-21T19:14:46;0.00;;;0.00;;
71955;SDS011;59829;50.562;6.258;2022-08-21T19:24:46;0.00;;;0.00;;
71955;SDS011;59829;50.562;6.258;2022-08-21T19:34:46;1.35;;;0.10;;
71955;SDS011;59829;50.562;6.258;2022-08-21T19:44:48;0.00;;;0.00;;
71955;SDS011;59829;50.562;6.258;2022-08-21T19:54:49;0.03;;;0.00;;
71955;SDS011;59829;50.562;6.258;2022-08-21T20:04:49;0.00;;;0.00;;
71955;SDS011;59829;50.562;6.258;2022-08-21T20:14:50;0.00;;;0.00;;
71955;SDS011;59829;50.562;6.258;2022-08-21T20:24:50;0.30;;;0.10;;
71955;SDS011;59829;50.562;6.258;2022-08-21T20:34:51;0.00;;;0.00;;
71955;SDS011;59829;50.562;6.258;2022-08-21T20:44:52;0.40;;;0.10;;
71955;SDS011;59829;50.562;6.258;2022-08-21T20:54:54;0.10;;;0.00;;
71955;SDS011;59829;50.562;6.258;2022-08-21T21:05:21;0.20;;;0.10;;
71955;SDS011;59829;50.562;6.258;2022-08-21T21:15:28;0.00;;;0.00;;
71955;SDS011;59829;50.562;6.258;2022-08-21T21:25:35;0.00;;;0.00;;
71955;SDS011;59829;50.562;6.258;2022-08-21T21:35:46;0.03;;;0.00;;
71955;SDS011;59829;50.562;6.258;2022-08-21T21:45:56;0.30;;;0.10;;
71955;SDS011;59829;50.562;6.258;2022-08-21T22:06:38;0.80;;;0.43;;
71955;SDS011;59829;50.562;6.258;2022-08-21T22:16:49;0.45;;;0.30;;
71955;SDS011;59829;50.562;6.258;2022-08-21T22:26:51;0.33;;;0.10;;
71955;SDS011;59829;50.562;6.258;2022-08-21T22:36:59;0.20;;;0.20;;
71955;SDS011;59829;50.562;6.258;2022-08-21T22:47:02;0.32;;;0.10;;
71955;SDS011;59829;50.562;6.258;2022-08-21T22:57:06;0.10;;;0.08;;
71955;SDS011;59829;50.562;6.258;2022-08-21T23:07:09;0.43;;;0.20;;
